createdAt,value
2022-12-08T00:00:15.957Z,3.34
2022-12-08T00:00:47.348Z,3.62
2022-12-08T00:01:18.822Z,2.91
2022-12-08T00:01:50.529Z,3.08
2022-12-08T00:02:22.134Z,3.55
2022-12-08T00:02:53.760Z,3.53
2022-12-08T00:03:25.357Z,3.65
2022-12-08T00:03:56.961Z,2.99
2022-12-08T00:04:28.356Z,2.82
2022-12-08T00:04:59.751Z,3.09
2022-12-08T00:05:31.205Z,3.51
2022-12-08T00:06:02.620Z,3.53
2022-12-08T00:06:34.032Z,3.47
2022-12-08T00:07:05.579Z,3.68
2022-12-08T00:07:37.013Z,2.74
2022-12-08T00:08:08.460Z,3.26
2022-12-08T00:08:39.995Z,3.52
2022-12-08T00:09:11.440Z,3.53
2022-12-08T00:09:42.831Z,3.19
2022-12-08T00:10:46.482Z,3.62
2022-12-08T00:11:05.614Z,3.13
2022-12-08T00:11:37.011Z,3.16
2022-12-08T00:12:08.437Z,3.36
2022-12-08T00:12:39.835Z,3.08
2022-12-08T00:13:11.228Z,3.58
2022-12-08T00:13:42.624Z,3.03
2022-12-08T00:14:14.018Z,3.60
2022-12-08T00:14:45.398Z,3.39
2022-12-08T00:15:16.784Z,3.32
2022-12-08T00:15:48.240Z,3.55
2022-12-08T00:16:19.664Z,3.30
2022-12-08T00:16:51.212Z,3.21
2022-12-08T00:17:22.695Z,3.26
2022-12-08T00:17:54.291Z,3.15
2022-12-08T00:18:25.686Z,3.39
2022-12-08T00:18:57.079Z,3.32
2022-12-08T00:19:28.471Z,3.25
2022-12-08T00:19:59.858Z,3.55
2022-12-08T00:20:31.261Z,3.38
2022-12-08T00:21:02.647Z,2.96
2022-12-08T00:21:34.036Z,3.42
2022-12-08T00:22:05.442Z,3.27
2022-12-08T00:22:36.883Z,3.24
2022-12-08T00:23:08.276Z,3.82
2022-12-08T00:23:39.673Z,2.95
2022-12-08T00:24:11.069Z,3.11
2022-12-08T00:24:42.492Z,2.71
2022-12-08T00:25:13.906Z,3.50
2022-12-08T00:25:45.306Z,3.10
2022-12-08T00:26:16.695Z,3.15
2022-12-08T00:26:48.136Z,2.75
2022-12-08T00:27:19.551Z,2.91
2022-12-08T00:27:51.047Z,2.92
2022-12-08T00:28:22.455Z,3.28
2022-12-08T00:28:53.854Z,2.89
2022-12-08T00:29:25.259Z,3.17
2022-12-08T00:29:56.672Z,3.37
2022-12-08T00:30:28.056Z,3.56
2022-12-08T00:30:59.448Z,3.18
2022-12-08T00:31:30.944Z,3.18
2022-12-08T00:32:02.433Z,3.43
2022-12-08T00:32:33.931Z,2.68
2022-12-08T00:33:05.362Z,3.13
2022-12-08T00:33:36.761Z,3.06
2022-12-08T00:34:10.928Z,3.59
2022-12-08T00:34:42.334Z,2.99
2022-12-08T00:35:13.747Z,2.95
2022-12-08T00:35:45.139Z,3.12
2022-12-08T00:36:16.568Z,3.14
2022-12-08T00:36:47.977Z,2.51
2022-12-08T00:37:19.376Z,3.18
2022-12-08T00:37:50.768Z,3.49
2022-12-08T00:38:22.252Z,3.39
2022-12-08T00:38:53.648Z,2.88
2022-12-08T00:39:25.069Z,2.53
2022-12-08T00:39:56.478Z,3.39
2022-12-08T00:40:27.862Z,2.80
2022-12-08T00:40:59.272Z,2.83
2022-12-08T00:41:30.679Z,3.04
2022-12-08T00:42:02.067Z,3.01
2022-12-08T00:42:33.462Z,3.52
2022-12-08T00:43:04.878Z,3.03
2022-12-08T00:43:36.390Z,2.91
2022-12-08T00:44:07.784Z,2.69
2022-12-08T00:44:39.182Z,3.30
2022-12-08T00:45:10.576Z,2.52
2022-12-08T00:45:42.017Z,3.12
2022-12-08T00:46:13.497Z,2.74
2022-12-08T00:46:44.960Z,2.37
2022-12-08T00:47:19.805Z,2.83
2022-12-08T00:47:53.615Z,2.67
2022-12-08T00:48:25.017Z,2.98
2022-12-08T00:48:56.504Z,2.78
2022-12-08T00:49:27.936Z,3.18
2022-12-08T00:50:00.451Z,2.70
2022-12-08T00:50:31.962Z,2.48
2022-12-08T00:51:03.382Z,2.68
2022-12-08T00:51:34.776Z,3.04
2022-12-08T00:52:06.188Z,2.31
2022-12-08T00:52:37.603Z,2.86
2022-12-08T00:53:09.011Z,2.62
2022-12-08T00:53:40.399Z,2.34
2022-12-08T00:54:11.818Z,2.56
2022-12-08T00:54:43.215Z,2.68
2022-12-08T00:55:14.604Z,3.04
2022-12-08T00:55:45.999Z,3.05
2022-12-08T00:56:17.408Z,2.53
2022-12-08T00:56:48.797Z,2.67
2022-12-08T00:57:20.183Z,2.68
2022-12-08T00:57:51.591Z,3.09
2022-12-08T00:58:23.090Z,2.68
2022-12-08T00:58:54.487Z,2.75
2022-12-08T00:59:25.951Z,3.27
2022-12-08T00:59:57.342Z,2.52
2022-12-08T01:00:28.732Z,2.72
2022-12-08T01:01:00.158Z,2.78
2022-12-08T01:01:31.607Z,2.61
2022-12-08T01:02:03.038Z,2.75
2022-12-08T01:02:34.476Z,2.73
2022-12-08T01:03:05.995Z,2.41
2022-12-08T01:03:37.453Z,2.68
2022-12-08T01:04:08.921Z,2.55
2022-12-08T01:04:40.426Z,2.85
2022-12-08T01:05:11.814Z,3.07
2022-12-08T01:05:43.204Z,2.53
2022-12-08T01:06:14.599Z,3.11
2022-12-08T01:06:45.991Z,2.78
2022-12-08T01:07:17.383Z,2.46
2022-12-08T01:07:48.817Z,2.73
2022-12-08T01:08:20.324Z,3.26
2022-12-08T01:08:51.775Z,2.56
2022-12-08T01:09:23.182Z,2.45
2022-12-08T01:09:54.684Z,2.85
2022-12-08T01:10:26.191Z,2.62
2022-12-08T01:10:57.604Z,2.76
2022-12-08T01:11:28.989Z,2.67
2022-12-08T01:12:00.401Z,2.53
2022-12-08T01:12:31.797Z,2.87
2022-12-08T01:13:03.200Z,2.76
2022-12-08T01:13:34.587Z,2.63
2022-12-08T01:14:05.980Z,2.90
2022-12-08T01:14:37.370Z,2.39
2022-12-08T01:15:08.839Z,2.86
2022-12-08T01:15:40.231Z,2.47
2022-12-08T01:16:11.706Z,2.79
2022-12-08T01:16:43.180Z,2.85
2022-12-08T01:17:14.695Z,2.73
2022-12-08T01:17:46.153Z,2.83
2022-12-08T01:18:17.540Z,2.56
2022-12-08T01:18:48.934Z,2.63
2022-12-08T01:19:20.319Z,3.05
2022-12-08T01:19:51.723Z,2.44
2022-12-08T01:20:23.213Z,2.30
2022-12-08T01:20:54.619Z,2.29
2022-12-08T01:21:26.027Z,2.53
2022-12-08T01:21:57.427Z,3.08
2022-12-08T01:22:28.837Z,2.94
2022-12-08T01:23:00.227Z,2.45
2022-12-08T01:23:31.642Z,3.08
2022-12-08T01:24:03.033Z,2.58
2022-12-08T01:24:34.423Z,2.52
2022-12-08T01:25:05.816Z,2.24
2022-12-08T01:25:37.273Z,3.07
2022-12-08T01:26:08.671Z,2.73
2022-12-08T01:26:40.062Z,2.99
2022-12-08T01:27:11.477Z,2.46
2022-12-08T01:27:42.886Z,3.04
2022-12-08T01:28:14.293Z,3.30
2022-12-08T01:28:45.693Z,2.58
2022-12-08T01:29:17.087Z,2.25
2022-12-08T01:29:48.476Z,2.66
2022-12-08T01:30:19.880Z,2.37
2022-12-08T01:30:51.376Z,2.34
2022-12-08T01:31:22.876Z,2.49
2022-12-08T01:31:54.354Z,2.63
2022-12-08T01:32:25.742Z,2.57
2022-12-08T01:32:57.126Z,2.68
2022-12-08T01:33:28.548Z,2.71
2022-12-08T01:33:59.931Z,2.54
2022-12-08T01:34:31.325Z,2.17
2022-12-08T01:35:02.717Z,2.46
2022-12-08T01:35:34.119Z,2.23
2022-12-08T01:36:05.545Z,2.62
2022-12-08T01:36:36.979Z,2.79
2022-12-08T01:37:08.401Z,2.03
2022-12-08T01:37:39.791Z,2.44
2022-12-08T01:38:11.211Z,2.41
2022-12-08T01:38:42.599Z,2.42
2022-12-08T01:39:13.988Z,3.01
2022-12-08T01:39:45.391Z,2.29
2022-12-08T01:40:16.787Z,2.81
2022-12-08T01:40:48.178Z,2.92
2022-12-08T01:41:19.612Z,2.65
2022-12-08T01:41:51.018Z,2.43
2022-12-08T01:42:22.410Z,2.43
2022-12-08T01:42:53.808Z,2.86
2022-12-08T01:43:25.222Z,2.54
2022-12-08T01:43:56.608Z,2.48
2022-12-08T01:44:28.007Z,2.71
2022-12-08T01:44:59.400Z,2.49
2022-12-08T01:45:30.792Z,2.52
2022-12-08T01:46:02.225Z,2.21
2022-12-08T01:46:33.743Z,2.60
2022-12-08T01:47:05.190Z,2.27
2022-12-08T01:47:36.663Z,2.40
2022-12-08T01:48:08.147Z,2.23
2022-12-08T01:48:39.564Z,2.63
2022-12-08T01:49:10.956Z,2.60
2022-12-08T01:49:42.343Z,2.43
2022-12-08T01:50:13.883Z,2.42
2022-12-08T01:50:45.267Z,2.61
2022-12-08T01:51:16.664Z,2.77
2022-12-08T01:51:48.183Z,2.42
2022-12-08T01:52:19.571Z,2.31
2022-12-08T01:52:50.964Z,2.42
2022-12-08T01:53:22.360Z,2.81
2022-12-08T01:53:53.753Z,2.40
2022-12-08T01:54:25.147Z,1.97
2022-12-08T01:54:56.554Z,2.52
2022-12-08T01:55:27.944Z,2.75
2022-12-08T01:55:59.331Z,2.41
2022-12-08T01:56:30.723Z,2.07
2022-12-08T01:57:02.234Z,2.46
2022-12-08T01:57:33.622Z,2.29
2022-12-08T01:58:05.020Z,2.42
2022-12-08T01:58:36.412Z,2.68
2022-12-08T01:59:07.810Z,2.29
2022-12-08T01:59:39.218Z,2.18
2022-12-08T02:00:10.613Z,2.49
2022-12-08T02:00:42.027Z,2.66
2022-12-08T02:01:13.452Z,2.48
2022-12-08T02:01:44.949Z,2.22
2022-12-08T02:02:16.573Z,2.36
2022-12-08T02:02:48.133Z,2.45
2022-12-08T02:03:19.566Z,2.71
2022-12-08T02:03:50.949Z,2.28
2022-12-08T02:04:22.340Z,2.50
2022-12-08T02:04:53.794Z,2.76
2022-12-08T02:05:25.182Z,2.52
2022-12-08T02:05:56.574Z,2.83
2022-12-08T02:06:27.962Z,2.02
2022-12-08T02:07:02.466Z,2.51
2022-12-08T02:07:36.434Z,2.30
2022-12-08T02:08:07.951Z,2.74
2022-12-08T02:08:39.392Z,2.50
2022-12-08T02:09:10.798Z,2.40
2022-12-08T02:09:42.271Z,2.52
2022-12-08T02:10:13.701Z,2.36
2022-12-08T02:10:45.094Z,2.53
2022-12-08T02:11:16.482Z,2.38
2022-12-08T02:11:47.874Z,2.50
2022-12-08T02:12:19.277Z,2.26
2022-12-08T02:12:50.766Z,2.41
2022-12-08T02:13:22.165Z,2.58
2022-12-08T02:13:53.564Z,2.19
2022-12-08T02:14:24.958Z,2.24
2022-12-08T02:14:58.418Z,1.98
2022-12-08T02:15:33.429Z,2.55
2022-12-08T02:16:04.999Z,2.67
2022-12-08T02:16:36.452Z,2.44
2022-12-08T02:17:07.849Z,2.27
2022-12-08T02:17:39.248Z,2.52
2022-12-08T02:18:10.771Z,2.27
2022-12-08T02:18:42.161Z,2.17
2022-12-08T02:20:05.056Z,2.35
2022-12-08T02:20:36.546Z,2.40
2022-12-08T02:21:07.935Z,2.70
2022-12-08T02:21:39.322Z,2.37
2022-12-08T02:22:10.711Z,2.14
2022-12-08T02:22:42.119Z,2.25
2022-12-08T02:23:13.584Z,2.68
2022-12-08T02:23:45.046Z,2.27
2022-12-08T02:24:16.457Z,2.08
2022-12-08T02:24:47.859Z,2.46
2022-12-08T02:25:19.249Z,2.03
2022-12-08T02:25:50.648Z,2.07
2022-12-08T02:26:22.063Z,2.18
2022-12-08T02:26:53.527Z,2.12
2022-12-08T02:27:24.916Z,2.41
2022-12-08T02:27:56.310Z,2.11
2022-12-08T02:28:27.834Z,2.04
2022-12-08T02:28:59.219Z,2.54
2022-12-08T02:29:30.614Z,2.60
2022-12-08T02:30:02.329Z,2.19
2022-12-08T02:30:34.019Z,2.33
2022-12-08T02:31:05.552Z,1.88
2022-12-08T02:31:37.082Z,1.78
2022-12-08T02:32:08.476Z,2.42
2022-12-08T02:32:39.886Z,2.31
2022-12-08T02:33:11.292Z,1.92
2022-12-08T02:33:42.708Z,1.88
2022-12-08T02:34:14.104Z,2.32
2022-12-08T02:34:45.534Z,2.44
2022-12-08T02:35:16.932Z,2.33
2022-12-08T02:35:48.334Z,2.47
2022-12-08T02:36:19.742Z,2.40
2022-12-08T02:36:51.137Z,1.97
2022-12-08T02:37:22.522Z,1.80
2022-12-08T02:37:53.929Z,2.05
2022-12-08T02:38:25.315Z,2.68
2022-12-08T02:38:56.713Z,2.33
2022-12-08T02:39:28.113Z,2.24
2022-12-08T02:39:59.541Z,1.95
2022-12-08T02:40:30.932Z,2.60
2022-12-08T02:41:02.331Z,2.08
2022-12-08T02:41:33.722Z,2.41
2022-12-08T02:42:05.111Z,2.09
2022-12-08T02:42:36.519Z,2.23
2022-12-08T02:43:07.916Z,2.27
2022-12-08T02:43:39.316Z,2.10
2022-12-08T02:44:10.832Z,1.99
2022-12-08T02:44:42.285Z,2.25
2022-12-08T02:45:13.669Z,1.83
2022-12-08T02:45:45.065Z,2.41
2022-12-08T02:46:16.533Z,2.23
2022-12-08T02:46:48.016Z,2.19
2022-12-08T02:47:19.469Z,1.96
2022-12-08T02:47:50.870Z,2.19
2022-12-08T02:48:22.263Z,2.06
2022-12-08T02:48:53.664Z,1.52
2022-12-08T02:49:25.095Z,1.97
2022-12-08T02:49:56.509Z,2.26
2022-12-08T02:50:27.907Z,2.44
2022-12-08T02:50:59.296Z,2.39
2022-12-08T02:51:30.703Z,2.40
2022-12-08T02:52:02.091Z,2.29
2022-12-08T02:52:33.515Z,1.88
2022-12-08T02:53:36.039Z,2.25
2022-12-08T02:54:07.427Z,1.86
2022-12-08T02:54:38.894Z,2.10
2022-12-08T02:55:10.285Z,1.99
2022-12-08T02:55:41.680Z,1.89
2022-12-08T02:56:13.071Z,2.05
2022-12-08T02:56:44.471Z,2.49
2022-12-08T02:57:15.864Z,1.97
2022-12-08T02:57:47.264Z,1.90
2022-12-08T02:58:18.653Z,1.97
2022-12-08T02:58:50.047Z,2.36
2022-12-08T02:59:21.435Z,2.07
2022-12-08T02:59:52.929Z,2.17
2022-12-08T03:00:24.324Z,2.44
2022-12-08T03:00:55.715Z,1.86
2022-12-08T03:01:27.192Z,1.92
2022-12-08T03:01:58.655Z,2.12
2022-12-08T03:02:30.197Z,2.20
2022-12-08T03:03:01.678Z,2.24
2022-12-08T03:03:33.109Z,2.21
2022-12-08T03:04:04.504Z,1.68
2022-12-08T03:04:35.912Z,2.08
2022-12-08T03:05:07.376Z,1.68
2022-12-08T03:05:38.779Z,1.84
2022-12-08T03:06:10.192Z,2.32
2022-12-08T03:06:41.593Z,2.32
2022-12-08T03:07:12.983Z,1.86
2022-12-08T03:07:44.413Z,2.47
2022-12-08T03:08:15.903Z,1.73
2022-12-08T03:08:47.387Z,2.04
2022-12-08T03:09:18.803Z,2.08
2022-12-08T03:09:50.195Z,2.65
2022-12-08T03:10:21.592Z,2.28
2022-12-08T03:10:52.983Z,2.80
2022-12-08T03:11:24.366Z,2.41
2022-12-08T03:11:55.768Z,1.81
2022-12-08T03:12:27.161Z,1.93
2022-12-08T03:12:58.552Z,2.39
2022-12-08T03:13:29.942Z,2.20
2022-12-08T03:14:01.333Z,2.29
2022-12-08T03:14:32.730Z,2.16
2022-12-08T03:15:04.120Z,2.34
2022-12-08T03:15:35.593Z,1.65
2022-12-08T03:16:07.098Z,1.88
2022-12-08T03:16:38.536Z,1.76
2022-12-08T03:17:09.929Z,1.89
2022-12-08T03:17:41.328Z,2.39
2022-12-08T03:18:12.730Z,2.03
2022-12-08T03:18:44.388Z,1.98
2022-12-08T03:19:15.836Z,2.17
2022-12-08T03:19:47.243Z,1.87
2022-12-08T03:20:18.744Z,2.04
2022-12-08T03:20:50.163Z,2.23
2022-12-08T03:21:21.580Z,1.84
2022-12-08T03:21:52.973Z,2.14
2022-12-08T03:22:24.378Z,1.82
2022-12-08T03:22:55.771Z,2.21
2022-12-08T03:23:27.159Z,2.18
2022-12-08T03:23:58.555Z,2.26
2022-12-08T03:24:29.963Z,2.06
2022-12-08T03:25:01.370Z,2.11
2022-12-08T03:25:32.790Z,2.23
2022-12-08T03:26:04.178Z,1.92
2022-12-08T03:26:35.571Z,1.86
2022-12-08T03:27:06.978Z,2.21
2022-12-08T03:27:38.362Z,1.91
2022-12-08T03:28:09.767Z,2.26
2022-12-08T03:28:41.153Z,1.96
2022-12-08T03:29:12.559Z,1.96
2022-12-08T03:29:43.956Z,1.92
2022-12-08T03:30:15.345Z,1.99
2022-12-08T03:30:46.904Z,2.14
2022-12-08T03:31:18.359Z,2.23
2022-12-08T03:31:49.826Z,2.03
2022-12-08T03:32:21.216Z,2.09
2022-12-08T03:32:52.602Z,1.96
2022-12-08T03:33:24.019Z,2.02
2022-12-08T03:33:55.428Z,1.82
2022-12-08T03:34:26.826Z,1.89
2022-12-08T03:34:58.219Z,1.76
2022-12-08T03:35:29.608Z,2.21
2022-12-08T03:36:01.129Z,2.02
2022-12-08T03:36:32.514Z,2.02
2022-12-08T03:37:03.927Z,2.14
2022-12-08T03:37:35.336Z,1.79
2022-12-08T03:38:06.729Z,1.85
2022-12-08T03:38:38.139Z,1.66
2022-12-08T03:39:09.534Z,2.01
2022-12-08T03:39:40.921Z,2.16
2022-12-08T03:40:12.315Z,1.96
2022-12-08T03:40:43.698Z,1.99
2022-12-08T03:41:15.165Z,1.81
2022-12-08T03:41:46.554Z,1.86
2022-12-08T03:42:17.948Z,2.04
2022-12-08T03:42:49.331Z,1.66
2022-12-08T03:43:20.719Z,1.72
2022-12-08T03:43:52.120Z,2.16
2022-12-08T03:44:23.514Z,2.12
2022-12-08T03:44:54.903Z,2.01
2022-12-08T03:45:26.353Z,1.67
2022-12-08T03:45:57.821Z,1.90
2022-12-08T03:46:59.582Z,1.82
2022-12-08T03:47:30.973Z,2.09
2022-12-08T03:48:02.416Z,2.50
2022-12-08T03:48:33.832Z,2.04
2022-12-08T03:49:05.240Z,2.06
2022-12-08T03:49:36.647Z,1.72
2022-12-08T03:50:08.052Z,1.86
2022-12-08T03:50:39.447Z,1.85
2022-12-08T03:51:10.842Z,2.01
2022-12-08T03:51:42.369Z,1.69
2022-12-08T03:52:13.765Z,1.63
2022-12-08T03:52:45.209Z,1.78
2022-12-08T03:53:16.617Z,1.97
2022-12-08T03:53:48.004Z,1.88
2022-12-08T03:54:19.417Z,2.06
2022-12-08T03:54:50.812Z,1.97
2022-12-08T03:55:22.199Z,1.96
2022-12-08T03:55:53.597Z,2.06
2022-12-08T03:56:24.993Z,2.20
2022-12-08T03:56:56.432Z,1.65
2022-12-08T03:57:27.829Z,1.62
2022-12-08T03:57:59.235Z,1.55
2022-12-08T03:58:35.764Z,1.79
2022-12-08T03:59:08.540Z,1.68
2022-12-08T03:59:39.935Z,1.75
2022-12-08T04:00:11.350Z,1.97
2022-12-08T04:00:42.745Z,1.72
2022-12-08T04:01:14.139Z,1.68
2022-12-08T04:01:45.603Z,1.88
2022-12-08T04:02:17.256Z,1.65
2022-12-08T04:02:48.753Z,1.59
2022-12-08T04:03:20.199Z,1.86
2022-12-08T04:03:51.637Z,2.28
2022-12-08T04:04:23.096Z,1.92
2022-12-08T04:04:54.490Z,1.85
2022-12-08T04:05:25.884Z,2.73
2022-12-08T04:05:57.272Z,1.88
2022-12-08T04:06:28.663Z,2.00
2022-12-08T04:07:00.084Z,1.83
2022-12-08T04:07:31.499Z,2.16
2022-12-08T04:08:02.966Z,1.93
2022-12-08T04:08:34.426Z,1.83
2022-12-08T04:09:05.845Z,1.95
2022-12-08T04:09:37.245Z,1.92
2022-12-08T04:10:08.645Z,1.98
2022-12-08T04:10:40.039Z,1.91
2022-12-08T04:11:11.424Z,1.92
2022-12-08T04:11:42.830Z,1.97
2022-12-08T04:12:14.241Z,2.10
2022-12-08T04:12:45.673Z,1.92
2022-12-08T04:13:17.083Z,1.74
2022-12-08T04:13:48.526Z,2.01
2022-12-08T04:14:19.932Z,1.72
2022-12-08T04:14:51.345Z,2.24
2022-12-08T04:15:22.738Z,1.79
2022-12-08T04:15:54.171Z,1.60
2022-12-08T04:16:25.638Z,1.47
2022-12-08T04:16:57.086Z,1.84
2022-12-08T04:17:28.490Z,1.83
2022-12-08T04:17:59.920Z,1.62
2022-12-08T04:18:31.308Z,1.40
2022-12-08T04:19:02.700Z,1.93
2022-12-08T04:19:34.115Z,1.92
2022-12-08T04:20:05.684Z,1.74
2022-12-08T04:20:37.270Z,1.54
2022-12-08T04:21:08.670Z,1.67
2022-12-08T04:21:40.059Z,1.72
2022-12-08T04:22:11.471Z,1.97
2022-12-08T04:22:42.874Z,1.86
2022-12-08T04:23:14.459Z,1.73
2022-12-08T04:23:45.968Z,1.80
2022-12-08T04:24:17.570Z,1.79
2022-12-08T04:24:48.963Z,1.76
2022-12-08T04:25:20.358Z,1.95
2022-12-08T04:25:51.757Z,2.23
2022-12-08T04:26:23.152Z,1.91
2022-12-08T04:26:54.543Z,1.91
2022-12-08T04:27:25.935Z,1.73
2022-12-08T04:27:57.349Z,1.89
2022-12-08T04:28:28.875Z,1.73
2022-12-08T04:29:00.287Z,1.29
2022-12-08T04:29:31.676Z,1.73
2022-12-08T04:30:03.629Z,1.76
2022-12-08T04:30:35.383Z,1.82
2022-12-08T04:31:06.906Z,2.43
2022-12-08T04:31:38.452Z,1.79
2022-12-08T04:32:09.914Z,1.72
2022-12-08T04:32:45.859Z,1.76
2022-12-08T04:33:18.831Z,1.67
2022-12-08T04:33:50.314Z,1.48
2022-12-08T04:34:21.704Z,1.88
2022-12-08T04:34:53.100Z,1.62
2022-12-08T04:35:24.481Z,1.65
2022-12-08T04:35:55.895Z,1.66
2022-12-08T04:36:27.303Z,1.62
2022-12-08T04:36:58.706Z,1.62
2022-12-08T04:37:30.100Z,1.71
2022-12-08T04:38:01.496Z,1.98
2022-12-08T04:38:32.883Z,2.18
2022-12-08T04:39:04.332Z,1.63
2022-12-08T04:39:35.748Z,1.64
2022-12-08T04:40:07.435Z,1.82
2022-12-08T04:40:38.943Z,1.82
2022-12-08T04:41:10.332Z,1.73
2022-12-08T04:41:41.738Z,1.90
2022-12-08T04:42:13.127Z,1.83
2022-12-08T04:42:44.520Z,2.03
2022-12-08T04:43:15.917Z,1.77
2022-12-08T04:43:47.327Z,1.71
2022-12-08T04:44:18.839Z,1.67
2022-12-08T04:44:50.222Z,1.64
2022-12-08T04:45:21.637Z,2.14
2022-12-08T04:45:53.031Z,2.06
2022-12-08T04:46:24.494Z,1.73
2022-12-08T04:46:55.975Z,1.94
2022-12-08T04:47:27.400Z,2.07
2022-12-08T04:47:58.788Z,2.00
2022-12-08T04:48:30.183Z,1.62
2022-12-08T04:49:01.576Z,1.76
2022-12-08T04:49:32.998Z,1.48
2022-12-08T04:50:04.583Z,1.72
2022-12-08T04:50:36.051Z,1.53
2022-12-08T04:51:07.455Z,1.96
2022-12-08T04:51:38.851Z,1.49
2022-12-08T04:52:10.238Z,1.79
2022-12-08T04:52:41.632Z,1.84
2022-12-08T04:53:13.023Z,1.87
2022-12-08T04:53:46.614Z,1.71
2022-12-08T04:54:18.530Z,2.28
2022-12-08T04:54:50.027Z,1.73
2022-12-08T04:55:21.419Z,1.83
2022-12-08T04:55:52.822Z,1.81
2022-12-08T04:56:24.379Z,2.19
2022-12-08T04:56:55.782Z,1.88
2022-12-08T04:57:27.187Z,1.88
2022-12-08T04:57:58.581Z,1.51
2022-12-08T04:58:29.997Z,2.04
2022-12-08T04:59:01.381Z,1.82
2022-12-08T04:59:32.775Z,1.48
2022-12-08T05:00:04.596Z,1.62
2022-12-08T05:00:36.247Z,1.66
2022-12-08T05:01:07.731Z,1.58
2022-12-08T05:01:39.265Z,1.69
2022-12-08T05:02:10.999Z,1.97
2022-12-08T05:02:42.646Z,1.67
2022-12-08T05:03:14.089Z,1.74
2022-12-08T05:03:45.512Z,1.67
2022-12-08T05:04:16.906Z,1.41
2022-12-08T05:04:48.297Z,1.71
2022-12-08T05:05:19.905Z,1.61
2022-12-08T05:05:51.298Z,1.37
2022-12-08T05:06:22.692Z,1.85
2022-12-08T05:06:54.107Z,1.90
2022-12-08T05:07:25.500Z,1.95
2022-12-08T05:07:56.972Z,1.57
2022-12-08T05:08:28.591Z,1.51
2022-12-08T05:09:00.005Z,1.56
2022-12-08T05:09:31.414Z,1.46
2022-12-08T05:10:03.202Z,1.47
2022-12-08T05:10:34.871Z,1.53
2022-12-08T05:11:06.268Z,1.83
2022-12-08T05:11:37.657Z,1.75
2022-12-08T05:12:09.052Z,1.76
2022-12-08T05:12:40.458Z,1.95
2022-12-08T05:13:12.015Z,1.64
2022-12-08T05:13:43.406Z,1.58
2022-12-08T05:14:14.795Z,1.62
2022-12-08T05:14:46.179Z,1.73
2022-12-08T05:15:17.580Z,1.77
2022-12-08T05:15:49.139Z,1.67
2022-12-08T05:16:20.627Z,1.85
2022-12-08T05:16:52.106Z,1.67
2022-12-08T05:17:23.564Z,1.77
2022-12-08T05:17:54.951Z,1.82
2022-12-08T05:18:26.365Z,1.56
2022-12-08T05:18:57.775Z,1.68
2022-12-08T05:19:29.163Z,1.55
2022-12-08T05:20:00.593Z,1.77
2022-12-08T05:20:32.013Z,1.76
2022-12-08T05:21:03.435Z,1.46
2022-12-08T05:21:34.843Z,1.53
2022-12-08T05:22:06.247Z,1.64
2022-12-08T05:22:37.651Z,1.64
2022-12-08T05:23:09.055Z,1.65
2022-12-08T05:23:40.455Z,1.56
2022-12-08T05:24:11.863Z,1.87
2022-12-08T05:24:47.340Z,2.13
2022-12-08T05:25:19.133Z,1.87
2022-12-08T05:25:50.575Z,1.62
2022-12-08T05:26:22.015Z,1.40
2022-12-08T05:26:53.422Z,1.40
2022-12-08T05:27:24.820Z,1.47
2022-12-08T05:28:17.576Z,1.48
2022-12-08T05:28:47.578Z,1.59
2022-12-08T05:29:18.965Z,1.72
2022-12-08T05:29:50.361Z,1.86
2022-12-08T05:30:21.755Z,1.57
2022-12-08T05:30:53.143Z,1.32
2022-12-08T05:31:24.770Z,1.67
2022-12-08T05:31:56.243Z,1.62
2022-12-08T05:32:27.672Z,1.39
2022-12-08T05:32:59.071Z,1.59
2022-12-08T05:33:30.497Z,1.42
2022-12-08T05:34:03.326Z,1.61
2022-12-08T05:34:34.864Z,1.46
2022-12-08T05:35:06.264Z,1.40
2022-12-08T05:35:37.666Z,1.79
2022-12-08T05:36:09.083Z,1.71
2022-12-08T05:36:40.560Z,1.40
2022-12-08T05:37:11.963Z,1.48
2022-12-08T05:37:43.356Z,1.72
2022-12-08T05:38:14.756Z,1.26
2022-12-08T05:38:46.152Z,1.54
2022-12-08T05:39:17.543Z,1.98
2022-12-08T05:39:48.931Z,1.27
2022-12-08T05:40:20.328Z,1.55
2022-12-08T05:40:51.715Z,1.56
2022-12-08T05:41:23.219Z,1.53
2022-12-08T05:41:54.631Z,1.69
2022-12-08T05:42:26.022Z,1.97
2022-12-08T05:42:57.415Z,1.68
2022-12-08T05:43:28.803Z,1.65
2022-12-08T05:44:00.215Z,1.76
2022-12-08T05:44:31.602Z,1.52
2022-12-08T05:45:03.008Z,1.43
2022-12-08T05:45:34.511Z,1.90
2022-12-08T05:46:06.105Z,1.52
2022-12-08T05:46:37.544Z,1.19
2022-12-08T05:47:08.959Z,1.72
2022-12-08T05:47:40.374Z,1.85
2022-12-08T05:48:11.772Z,1.78
2022-12-08T05:48:43.168Z,1.79
2022-12-08T05:49:14.564Z,1.75
2022-12-08T05:49:46.011Z,1.45
2022-12-08T05:50:17.401Z,1.33
2022-12-08T05:50:48.794Z,1.30
2022-12-08T05:51:20.205Z,1.26
2022-12-08T05:51:51.728Z,1.72
2022-12-08T05:52:23.135Z,1.69
2022-12-08T05:52:54.525Z,1.49
2022-12-08T05:53:25.939Z,1.26
2022-12-08T05:53:57.343Z,1.73
2022-12-08T05:54:28.730Z,1.52
2022-12-08T05:55:00.138Z,1.69
2022-12-08T05:55:31.542Z,1.86
2022-12-08T05:56:03.019Z,1.41
2022-12-08T05:56:34.407Z,1.39
2022-12-08T05:57:05.877Z,1.70
2022-12-08T05:57:37.269Z,1.68
2022-12-08T05:58:08.659Z,1.65
2022-12-08T05:58:40.057Z,1.45
2022-12-08T05:59:11.458Z,1.81
2022-12-08T05:59:42.874Z,1.75
2022-12-08T06:00:14.285Z,1.99
2022-12-08T06:00:45.682Z,1.51
2022-12-08T06:01:17.077Z,1.58
2022-12-08T06:01:48.543Z,1.40
2022-12-08T06:02:20.172Z,1.49
2022-12-08T06:02:51.773Z,1.84
2022-12-08T06:03:23.299Z,1.90
2022-12-08T06:03:54.712Z,1.54
2022-12-08T06:04:26.112Z,1.77
2022-12-08T06:04:57.501Z,1.49
2022-12-08T06:05:28.910Z,1.72
2022-12-08T06:06:00.299Z,1.84
2022-12-08T06:06:31.691Z,1.24
2022-12-08T06:07:03.080Z,1.47
2022-12-08T06:07:34.606Z,1.34
2022-12-08T06:08:06.046Z,1.65
2022-12-08T06:08:37.501Z,1.96
2022-12-08T06:09:08.910Z,1.74
2022-12-08T06:09:40.468Z,1.29
2022-12-08T06:10:11.856Z,1.33
2022-12-08T06:10:43.240Z,1.47
2022-12-08T06:11:14.683Z,1.38
2022-12-08T06:11:46.070Z,1.55
2022-12-08T06:12:17.474Z,1.67
2022-12-08T06:12:48.977Z,1.56
2022-12-08T06:13:20.378Z,1.33
2022-12-08T06:13:51.771Z,1.31
2022-12-08T06:14:23.174Z,1.22
2022-12-08T06:14:54.568Z,1.40
2022-12-08T06:15:25.967Z,1.28
2022-12-08T06:15:57.427Z,1.32
2022-12-08T06:16:28.931Z,1.46
2022-12-08T06:17:00.481Z,1.39
2022-12-08T06:17:31.914Z,1.90
2022-12-08T06:18:03.441Z,1.48
2022-12-08T06:18:34.832Z,1.49
2022-12-08T06:19:06.228Z,1.38
2022-12-08T06:19:37.632Z,1.57
2022-12-08T06:20:09.062Z,1.40
2022-12-08T06:20:40.485Z,1.48
2022-12-08T06:21:11.872Z,1.54
2022-12-08T06:21:43.260Z,1.55
2022-12-08T06:22:14.643Z,1.48
2022-12-08T06:22:46.026Z,1.58
2022-12-08T06:23:17.617Z,1.49
2022-12-08T06:23:49.016Z,1.50
2022-12-08T06:24:20.406Z,2.24
2022-12-08T06:24:51.794Z,1.46
2022-12-08T06:25:23.223Z,1.19
2022-12-08T06:25:54.626Z,1.32
2022-12-08T06:26:26.029Z,1.44
2022-12-08T06:26:57.415Z,1.25
2022-12-08T06:27:28.810Z,1.43
2022-12-08T06:28:00.224Z,1.59
2022-12-08T06:28:31.779Z,1.63
2022-12-08T06:29:03.179Z,1.23
2022-12-08T06:29:34.582Z,1.41
2022-12-08T06:30:06.230Z,1.13
2022-12-08T06:30:37.829Z,1.96
2022-12-08T06:31:09.219Z,1.35
2022-12-08T06:31:40.679Z,1.11
2022-12-08T06:32:12.199Z,1.50
2022-12-08T06:32:43.704Z,1.52
2022-12-08T06:33:15.110Z,1.75
2022-12-08T06:33:46.506Z,1.64
2022-12-08T06:34:17.911Z,1.57
2022-12-08T06:34:49.299Z,1.66
2022-12-08T06:35:20.760Z,1.70
2022-12-08T06:35:52.162Z,1.47
2022-12-08T06:36:23.568Z,1.51
2022-12-08T06:36:54.964Z,1.73
2022-12-08T06:37:26.374Z,1.30
2022-12-08T06:37:57.763Z,1.20
2022-12-08T06:38:29.152Z,1.55
2022-12-08T06:39:00.575Z,1.01
2022-12-08T06:39:31.958Z,1.28
2022-12-08T06:40:03.640Z,1.42
2022-12-08T06:40:35.247Z,1.38
2022-12-08T06:41:06.635Z,1.24
2022-12-08T06:41:38.023Z,1.52
2022-12-08T06:42:09.418Z,1.71
2022-12-08T06:42:40.815Z,1.65
2022-12-08T06:43:12.388Z,1.68
2022-12-08T06:43:43.797Z,1.39
2022-12-08T06:44:15.395Z,1.83
2022-12-08T06:44:46.799Z,1.35
2022-12-08T06:45:18.194Z,1.54
2022-12-08T06:45:49.642Z,1.31
2022-12-08T06:46:21.122Z,1.67
2022-12-08T06:46:52.534Z,1.45
2022-12-08T06:47:26.369Z,1.38
2022-12-08T06:47:57.959Z,1.22
2022-12-08T06:48:29.381Z,1.63
2022-12-08T06:49:00.773Z,1.86
2022-12-08T06:49:32.215Z,1.52
2022-12-08T06:50:03.922Z,1.97
2022-12-08T06:50:35.529Z,1.37
2022-12-08T06:51:06.924Z,1.29
2022-12-08T06:51:38.347Z,1.15
2022-12-08T06:52:09.744Z,1.25
2022-12-08T06:52:51.747Z,1.26
2022-12-08T06:53:27.287Z,1.57
2022-12-08T06:53:58.690Z,1.36
2022-12-08T06:54:30.106Z,1.71
2022-12-08T06:55:01.643Z,1.34
2022-12-08T06:56:24.438Z,1.20
2022-12-08T06:56:55.830Z,1.43
2022-12-08T06:57:27.240Z,1.07
2022-12-08T06:57:59.468Z,1.48
2022-12-08T06:58:30.910Z,1.18
2022-12-08T06:59:02.308Z,1.24
2022-12-08T06:59:33.710Z,1.27
2022-12-08T07:00:05.470Z,1.87
2022-12-08T07:00:37.111Z,1.91
2022-12-08T07:01:08.671Z,1.84
2022-12-08T07:01:40.224Z,1.32
2022-12-08T07:02:11.805Z,1.47
2022-12-08T07:02:43.309Z,1.38